createdAt,value
2022-09-12T00:03:58.101Z,10.90
2022-09-12T00:06:27.786Z,10.70
2022-09-12T00:08:55.185Z,11.20
2022-09-12T00:11:21.929Z,10.90
2022-09-12T00:13:48.947Z,10.60
2022-09-12T00:16:25.576Z,13.00
2022-09-12T00:18:53.802Z,10.70
2022-09-12T00:21:21.548Z,10.80
2022-09-12T00:23:48.771Z,11.10
2022-09-12T00:26:15.524Z,10.70
2022-09-12T00:28:42.183Z,10.90
2022-09-12T00:31:10.493Z,10.70
2022-09-12T00:33:37.172Z,10.90
2022-09-12T00:36:05.591Z,12.80
2022-09-12T00:38:32.527Z,11.50
2022-09-12T00:40:59.305Z,10.70
2022-09-12T00:43:34.989Z,10.80
2022-09-12T00:46:22.538Z,11.30
2022-09-12T00:48:59.568Z,11.20
2022-09-12T00:51:26.825Z,11.40
2022-09-12T00:53:53.749Z,12.70
2022-09-12T00:56:20.783Z,13.20
2022-09-12T00:59:00.573Z,13.00
2022-09-12T01:01:31.740Z,11.10
2022-09-12T01:03:59.223Z,10.70
2022-09-12T01:06:27.289Z,13.20
2022-09-12T01:08:54.984Z,11.60
2022-09-12T01:11:22.074Z,11.60
2022-09-12T01:13:49.741Z,10.60
2022-09-12T01:16:16.568Z,10.50
2022-09-12T01:18:59.826Z,12.30
2022-09-12T01:21:34.803Z,10.90
2022-09-12T01:24:04.394Z,11.10
2022-09-12T01:29:16.828Z,11.10
2022-09-12T01:31:49.622Z,11.10
2022-09-12T01:34:26.376Z,10.50
2022-09-12T01:37:02.239Z,12.60
2022-09-12T01:39:28.897Z,11.10
2022-09-12T01:41:58.648Z,10.70
2022-09-12T01:44:40.528Z,10.70
2022-09-12T01:47:11.381Z,11.40
2022-09-12T01:49:41.714Z,10.80
2022-09-12T01:52:16.751Z,10.90
2022-09-12T01:54:46.299Z,11.00
2022-09-12T01:57:16.968Z,11.00
2022-09-12T01:59:51.220Z,10.70
2022-09-12T02:02:39.185Z,11.10
2022-09-12T02:05:16.211Z,11.20
2022-09-12T02:07:54.023Z,11.10
2022-09-12T02:10:23.291Z,11.20
2022-09-12T02:12:55.622Z,11.20
2022-09-12T02:17:50.056Z,12.70
2022-09-12T02:20:37.429Z,10.90
2022-09-12T02:23:09.164Z,11.20
2022-09-12T02:25:37.899Z,10.80
2022-09-12T02:28:06.917Z,11.00
2022-09-12T02:33:01.654Z,11.10
2022-09-12T02:38:07.553Z,11.00
2022-09-12T02:40:35.835Z,11.10
2022-09-12T02:43:03.636Z,10.90
2022-09-12T02:45:32.244Z,11.20
2022-09-12T02:48:02.580Z,11.10
2022-09-12T02:50:29.653Z,11.00
2022-09-12T02:52:59.835Z,11.20
2022-09-12T02:55:30.133Z,11.20
2022-09-12T02:57:56.794Z,11.20
2022-09-12T03:00:24.107Z,10.20
2022-09-12T03:03:00.212Z,11.10
2022-09-12T03:05:28.856Z,11.10
2022-09-12T03:08:10.697Z,10.60
2022-09-12T03:10:42.909Z,11.10
2022-09-12T03:13:09.408Z,11.10
2022-09-12T03:15:43.060Z,11.10
2022-09-12T03:18:35.972Z,11.10
2022-09-12T03:21:07.275Z,11.20
2022-09-12T03:23:37.530Z,11.30
2022-09-12T03:26:07.278Z,11.00
2022-09-12T03:28:34.911Z,11.20
2022-09-12T03:31:11.514Z,11.20
2022-09-12T03:33:38.107Z,11.20
2022-09-12T03:36:04.809Z,10.50
2022-09-12T03:38:31.475Z,11.40
2022-09-12T03:40:58.082Z,11.20
2022-09-12T03:43:24.645Z,12.50
2022-09-12T03:45:54.239Z,11.10
2022-09-12T03:48:21.222Z,12.50
2022-09-12T03:50:47.783Z,12.20
2022-09-12T03:53:17.236Z,11.20
2022-09-12T03:55:44.375Z,10.20
2022-09-12T03:58:10.981Z,11.90
2022-09-12T04:00:38.575Z,12.00
2022-09-12T04:03:05.300Z,10.90
2022-09-12T04:05:31.904Z,11.20
2022-09-12T04:07:58.451Z,12.40
2022-09-12T04:10:25.004Z,12.20
2022-09-12T04:12:51.805Z,11.30
2022-09-12T04:15:18.622Z,11.20
2022-09-12T04:17:45.300Z,12.60
2022-09-12T04:20:11.973Z,11.10
2022-09-12T04:22:38.631Z,12.10
2022-09-12T04:25:05.487Z,10.90
2022-09-12T04:27:32.131Z,11.30
2022-09-12T04:29:59.561Z,11.90
2022-09-12T04:32:26.178Z,11.00
2022-09-12T04:34:52.728Z,12.00
2022-09-12T04:37:19.382Z,11.10
2022-09-12T04:39:45.982Z,11.20
2022-09-12T04:42:12.555Z,10.30
2022-09-12T04:44:39.095Z,10.10
2022-09-12T04:47:05.707Z,11.10
2022-09-12T04:49:32.281Z,11.20
2022-09-12T04:51:58.848Z,12.30
2022-09-12T04:54:25.735Z,11.40
2022-09-12T04:56:52.729Z,11.30
2022-09-12T04:59:21.729Z,11.30
2022-09-12T05:01:48.642Z,11.20
2022-09-12T05:04:15.682Z,11.20
2022-09-12T05:06:42.624Z,11.30
2022-09-12T05:09:11.587Z,11.60
2022-09-12T05:12:03.309Z,11.00
2022-09-12T05:14:26.580Z,11.20
2022-09-12T05:16:53.200Z,11.30
2022-09-12T05:19:19.856Z,11.40
2022-09-12T05:21:46.487Z,11.30
2022-09-12T05:24:13.053Z,11.40
2022-09-12T05:26:39.637Z,11.10
2022-09-12T05:29:07.026Z,10.90
2022-09-12T05:34:01.202Z,11.50
2022-09-12T05:36:29.351Z,11.20
2022-09-12T05:41:25.217Z,11.60
2022-09-12T05:43:55.244Z,11.00
2022-09-12T05:46:22.926Z,12.50
2022-09-12T05:51:23.480Z,11.60
2022-09-12T05:53:51.511Z,11.50
2022-09-12T05:56:19.454Z,11.40
2022-09-12T05:58:47.221Z,11.40
2022-09-12T06:01:15.136Z,11.60
2022-09-12T06:03:49.018Z,11.60
2022-09-12T06:06:16.498Z,11.70
2022-09-12T06:08:44.216Z,11.60
2022-09-12T06:11:15.394Z,11.60
2022-09-12T06:13:42.430Z,11.70
2022-09-12T06:16:13.573Z,11.40
2022-09-12T06:18:41.463Z,11.70
2022-09-12T06:21:12.094Z,11.70
2022-09-12T06:23:39.349Z,11.90
2022-09-12T06:26:07.004Z,11.80
2022-09-12T06:28:35.206Z,13.50
2022-09-12T06:31:05.993Z,11.60
2022-09-12T06:33:36.487Z,11.80
2022-09-12T06:36:11.547Z,11.90
2022-09-12T06:38:39.135Z,12.00
2022-09-12T06:41:07.132Z,14.00
2022-09-12T06:43:34.539Z,12.10
2022-09-12T06:46:01.655Z,14.00
2022-09-12T06:48:28.415Z,11.70
2022-09-12T06:50:56.428Z,11.80
2022-09-12T06:53:23.067Z,13.70
2022-09-12T06:56:00.550Z,12.70
2022-09-12T06:58:27.676Z,12.20
2022-09-12T07:01:02.385Z,12.20
2022-09-12T07:03:29.533Z,12.10
2022-09-12T07:05:56.188Z,12.00
2022-09-12T07:08:23.140Z,14.00
2022-09-12T07:10:49.762Z,13.10
2022-09-12T07:13:16.398Z,12.40
2022-09-12T07:15:43.006Z,12.40
2022-09-12T07:20:37.250Z,12.30
2022-09-12T07:23:03.879Z,12.40
2022-09-12T07:25:30.502Z,12.60
2022-09-12T07:27:57.161Z,12.40
2022-09-12T07:30:23.740Z,14.40
2022-09-12T07:32:54.085Z,12.40
2022-09-12T07:35:20.962Z,12.80
2022-09-12T07:37:47.904Z,13.60
2022-09-12T07:42:41.625Z,12.90
2022-09-12T07:45:08.488Z,12.20
2022-09-12T07:47:35.342Z,13.30
2022-09-12T07:50:02.442Z,12.80
2022-09-12T07:54:56.212Z,13.10
2022-09-12T07:57:22.954Z,14.90
2022-09-12T07:59:53.061Z,12.40
2022-09-12T08:02:20.343Z,12.90
2022-09-12T08:04:47.430Z,12.70
2022-09-12T08:07:14.403Z,12.80
2022-09-12T08:12:08.420Z,13.50
2022-09-12T08:14:35.078Z,14.40
2022-09-12T08:17:01.753Z,14.50
2022-09-12T08:19:28.425Z,12.80
2022-09-12T08:21:55.076Z,13.10
2022-09-12T08:24:21.796Z,13.10
2022-09-12T08:26:48.499Z,13.80
2022-09-12T08:31:42.583Z,14.00
2022-09-12T08:34:09.526Z,13.90
2022-09-12T08:36:36.287Z,13.70
2022-09-12T08:39:07.032Z,15.30
2022-09-12T08:41:41.078Z,14.10
2022-09-12T08:44:26.463Z,14.20
2022-09-12T08:47:02.170Z,14.10
2022-09-12T08:49:28.823Z,14.30
2022-09-12T08:54:25.147Z,14.20
2022-09-12T08:56:53.980Z,13.70
2022-09-12T08:59:20.860Z,13.50
2022-09-12T09:01:52.080Z,16.00
2022-09-12T09:04:30.363Z,15.70
2022-09-12T09:07:15.895Z,14.90
2022-09-12T09:09:51.800Z,14.80
2022-09-12T09:12:27.576Z,14.90
2022-09-12T09:17:25.407Z,15.10
2022-09-12T09:20:04.965Z,15.00
2022-09-12T09:22:38.287Z,15.10
2022-09-12T09:27:44.021Z,15.40
2022-09-12T09:30:15.471Z,15.60
2022-09-12T09:32:42.940Z,15.80
2022-09-12T09:35:36.757Z,15.80
2022-09-12T09:38:06.427Z,16.00
2022-09-12T09:40:38.272Z,16.00
2022-09-12T09:43:15.210Z,17.70
2022-09-12T09:45:44.582Z,16.40
2022-09-12T09:48:19.374Z,15.70
2022-09-12T09:50:47.110Z,16.30
2022-09-12T09:53:29.817Z,17.10
2022-09-12T09:58:31.075Z,16.40
2022-09-12T10:01:01.982Z,16.60
2022-09-12T10:03:30.179Z,16.90
2022-09-12T10:06:01.247Z,17.30
2022-09-12T10:08:32.004Z,17.00
2022-09-12T10:11:01.875Z,16.30
2022-09-12T10:13:39.852Z,16.60
2022-09-12T10:21:01.779Z,18.40
2022-09-12T10:23:41.040Z,18.70
2022-09-12T10:26:12.214Z,18.60
2022-09-12T10:28:40.169Z,18.40
2022-09-12T10:33:41.479Z,19.00
2022-09-12T10:36:08.235Z,19.60
2022-09-12T10:41:04.119Z,19.60
2022-09-12T10:43:33.782Z,20.20
2022-09-12T10:46:20.450Z,20.30
2022-09-12T10:48:48.136Z,20.70
2022-09-12T10:51:23.959Z,20.30
2022-09-12T10:53:51.463Z,21.00
2022-09-12T10:56:25.888Z,21.00
2022-09-12T10:59:11.897Z,20.60
2022-09-12T11:01:47.211Z,21.10
2022-09-12T11:04:13.855Z,21.00
2022-09-12T11:09:19.257Z,21.60
2022-09-12T11:11:54.280Z,22.00
2022-09-12T11:14:44.215Z,23.60
2022-09-12T11:17:16.861Z,22.20
2022-09-12T11:19:57.284Z,22.90
2022-09-12T11:22:44.203Z,23.00
2022-09-12T11:27:40.914Z,22.60
2022-09-12T11:32:41.389Z,23.70
2022-09-12T11:35:15.177Z,23.80
2022-09-12T11:45:13.654Z,24.30
2022-09-12T11:52:37.225Z,23.70
2022-09-12T12:34:37.704Z,24.90
2022-09-12T12:37:19.775Z,25.20
2022-09-12T12:44:45.699Z,24.90
2022-09-12T13:46:04.124Z,23.90
2022-09-12T13:48:30.941Z,23.70
2022-09-12T13:50:59.898Z,24.00
2022-09-12T13:53:28.562Z,24.80
2022-09-12T14:06:03.430Z,26.90
2022-09-12T14:08:31.641Z,27.10
2022-09-12T14:13:26.998Z,27.30
2022-09-12T14:15:54.935Z,27.60
2022-09-12T14:18:26.071Z,26.50
2022-09-12T14:20:54.144Z,26.00
2022-09-12T14:23:21.484Z,25.70
2022-09-12T14:25:49.341Z,26.60
2022-09-12T14:28:23.616Z,26.80
2022-09-12T14:31:09.313Z,26.80
2022-09-12T14:33:48.675Z,25.60
2022-09-12T14:36:19.740Z,25.60
2022-09-12T14:38:48.313Z,26.00
2022-09-12T14:41:21.689Z,27.00
2022-09-12T14:43:51.704Z,27.10
2022-09-12T14:46:24.519Z,27.10
2022-09-12T14:48:53.030Z,26.20
2022-09-12T14:51:22.356Z,26.20
2022-09-12T14:53:49.927Z,26.50
2022-09-12T15:01:10.724Z,27.00
2022-09-12T15:03:49.336Z,26.60
2022-09-12T15:06:29.835Z,25.80
2022-09-12T15:09:00.603Z,25.80
2022-09-12T15:11:27.536Z,27.00
2022-09-12T15:13:54.185Z,27.00
2022-09-12T15:16:20.886Z,27.10
2022-09-12T15:18:47.503Z,28.70
2022-09-12T15:21:17.070Z,28.70
2022-09-12T15:23:45.722Z,29.90
2022-09-12T15:26:13.937Z,30.10
2022-09-12T15:28:40.737Z,29.40
2022-09-12T15:31:11.778Z,29.00
2022-09-12T15:33:38.856Z,29.60
2022-09-12T15:36:11.886Z,29.50
2022-09-12T15:38:38.554Z,29.50
2022-09-12T15:41:09.603Z,29.20
2022-09-12T15:43:36.588Z,29.50
2022-09-12T15:46:06.755Z,29.90
2022-09-12T15:48:33.427Z,29.10
2022-09-12T15:51:01.799Z,29.50
2022-09-12T15:53:28.389Z,29.50
2022-09-12T15:58:22.196Z,29.70
2022-09-12T16:00:49.092Z,29.90
2022-09-12T16:03:19.471Z,29.90
2022-09-12T16:05:46.130Z,29.00
2022-09-12T16:08:12.829Z,30.00
2022-09-12T16:10:39.475Z,28.70
2022-09-12T16:13:06.187Z,28.40
2022-09-12T16:15:32.895Z,29.10
2022-09-12T16:17:59.612Z,29.30
2022-09-12T16:20:26.352Z,28.40
2022-09-12T16:25:20.694Z,27.40
2022-09-12T16:32:41.608Z,24.30
2022-09-12T16:35:08.491Z,23.70
2022-09-12T16:52:19.158Z,22.30
2022-09-12T16:54:45.811Z,23.10
2022-09-12T16:57:12.474Z,23.30
2022-09-12T16:59:39.103Z,22.60
2022-09-12T17:02:06.252Z,21.70
2022-09-12T17:04:33.018Z,22.30
2022-09-12T17:06:59.719Z,20.20
2022-09-12T17:09:28.136Z,20.50
2022-09-12T17:11:55.375Z,21.10
2022-09-12T17:14:22.252Z,20.90
2022-09-12T17:19:20.278Z,20.60
2022-09-12T17:21:50.181Z,20.40
2022-09-12T17:24:17.647Z,20.80
2022-09-12T17:29:12.679Z,20.00
2022-09-12T17:31:39.712Z,19.90
2022-09-12T17:34:06.859Z,19.70
2022-09-12T17:36:34.095Z,19.40
2022-09-12T17:39:01.774Z,19.50
2022-09-12T17:41:29.476Z,19.90
2022-09-12T17:43:57.262Z,19.20
2022-09-12T17:46:25.707Z,19.40
2022-09-12T17:48:52.972Z,18.30
2022-09-12T17:51:20.212Z,19.20
2022-09-12T17:53:47.483Z,18.00
2022-09-12T17:56:14.236Z,18.50
2022-09-12T17:58:40.979Z,18.60
2022-09-12T18:01:28.963Z,17.60
2022-09-12T18:03:56.779Z,17.70
2022-09-12T18:06:24.048Z,17.70
2022-09-12T18:11:18.330Z,17.00
2022-09-12T18:16:12.826Z,16.90
2022-09-12T18:18:39.627Z,16.50
2022-09-12T18:21:06.951Z,16.10
2022-09-12T18:23:34.027Z,16.40
2022-09-12T18:26:01.871Z,16.60
2022-09-12T18:28:28.557Z,16.60
2022-09-12T18:30:55.251Z,16.90
2022-09-12T18:33:24.048Z,16.20
2022-09-12T18:35:51.208Z,16.10
2022-09-12T18:38:17.746Z,16.00
2022-09-12T18:40:45.133Z,15.80
2022-09-12T18:43:11.742Z,15.60
2022-09-12T18:45:38.565Z,17.30
2022-09-12T18:48:06.142Z,15.60
2022-09-12T18:50:33.080Z,16.90
2022-09-12T18:53:00.070Z,15.90
2022-09-12T18:55:26.947Z,16.30
2022-09-12T18:57:54.952Z,16.80
2022-09-12T19:00:21.756Z,15.30
2022-09-12T19:02:48.422Z,15.70
2022-09-12T19:05:15.110Z,15.60
2022-09-12T19:07:41.795Z,15.50
2022-09-12T19:10:09.005Z,16.60
2022-09-12T19:12:35.685Z,15.40
2022-09-12T19:15:02.872Z,16.90
2022-09-12T19:17:29.590Z,15.10
2022-09-12T19:19:56.221Z,15.00
2022-09-12T19:22:22.875Z,16.30
2022-09-12T19:24:49.480Z,15.00
2022-09-12T19:27:16.209Z,14.90
2022-09-12T19:29:42.875Z,14.70
2022-09-12T19:32:09.524Z,15.00
2022-09-12T19:34:36.112Z,16.20
2022-09-12T19:37:02.763Z,13.90
2022-09-12T19:39:29.738Z,15.60
2022-09-12T19:41:56.562Z,15.20
2022-09-12T19:44:23.773Z,14.80
2022-09-12T19:46:51.073Z,14.10
2022-09-12T19:51:44.781Z,14.50
2022-09-12T19:54:11.412Z,14.20
2022-09-12T19:56:38.360Z,16.00
2022-09-12T19:59:05.093Z,13.60
2022-09-12T20:01:32.486Z,13.90
2022-09-12T20:03:59.189Z,15.70
2022-09-12T20:06:26.208Z,15.30
2022-09-12T20:08:52.840Z,14.10
2022-09-12T20:11:20.503Z,15.00
2022-09-12T20:13:47.174Z,14.20
2022-09-12T20:16:20.346Z,15.20
2022-09-12T20:18:49.411Z,15.70
2022-09-12T20:21:17.674Z,14.20
2022-09-12T20:23:44.985Z,14.10
2022-09-12T20:28:38.796Z,13.90
2022-09-12T20:31:11.176Z,14.40
2022-09-12T20:36:06.673Z,13.60
2022-09-12T20:38:33.322Z,13.70
2022-09-12T20:41:04.155Z,15.00
2022-09-12T20:43:30.774Z,13.80
2022-09-12T20:45:57.848Z,14.80
2022-09-12T20:48:25.119Z,13.70
2022-09-12T20:50:51.770Z,12.90
2022-09-12T20:53:18.629Z,14.50
2022-09-12T20:55:52.517Z,14.70
2022-09-12T20:58:20.078Z,13.60
2022-09-12T21:00:47.040Z,14.10
2022-09-12T21:03:14.199Z,14.90
2022-09-12T21:05:42.144Z,13.30
2022-09-12T21:13:02.870Z,13.00
2022-09-12T21:15:29.541Z,12.80
2022-09-12T21:17:56.111Z,13.70
2022-09-12T21:20:22.750Z,12.20
2022-09-12T21:22:49.395Z,12.70
2022-09-12T21:25:16.125Z,13.80
2022-09-12T21:27:42.770Z,13.10
2022-09-12T21:30:09.568Z,12.60
2022-09-12T21:32:36.201Z,13.20
2022-09-12T21:35:04.112Z,13.20
2022-09-12T21:37:30.827Z,13.90
2022-09-12T21:39:58.858Z,14.40
2022-09-12T21:42:25.676Z,12.20
2022-09-12T21:44:52.254Z,14.10
2022-09-12T21:47:18.917Z,12.20
2022-09-12T21:49:45.485Z,14.60
2022-09-12T21:52:12.735Z,12.30
2022-09-12T21:54:39.495Z,12.40
2022-09-12T21:57:06.146Z,12.20
2022-09-12T21:59:32.783Z,13.00
2022-09-12T22:01:59.704Z,14.60
2022-09-12T22:04:26.512Z,12.40
2022-09-12T22:06:53.179Z,12.40
2022-09-12T22:09:19.844Z,12.40
2022-09-12T22:11:46.982Z,12.60
2022-09-12T22:14:13.666Z,12.30
2022-09-12T22:16:40.501Z,13.70
2022-09-12T22:19:07.192Z,12.20
2022-09-12T22:21:33.837Z,13.40
2022-09-12T22:24:19.117Z,13.40
2022-09-12T22:26:46.358Z,12.70
2022-09-12T22:29:13.364Z,12.00
2022-09-12T22:31:40.534Z,12.00
2022-09-12T22:34:07.493Z,11.80
2022-09-12T22:36:38.191Z,11.70
2022-09-12T22:43:59.790Z,11.60
2022-09-12T22:46:26.536Z,11.70
2022-09-12T22:48:55.554Z,11.70
2022-09-12T22:51:22.194Z,11.70
2022-09-12T22:53:49.022Z,11.70
2022-09-12T22:56:15.907Z,11.90
2022-09-12T22:58:43.199Z,11.60
2022-09-12T23:01:10.464Z,11.60
2022-09-12T23:03:37.225Z,11.80
2022-09-12T23:06:04.246Z,11.50
2022-09-12T23:08:30.805Z,11.80
2022-09-12T23:11:04.684Z,11.60
2022-09-12T23:13:32.128Z,11.80
2022-09-12T23:15:59.402Z,11.50
2022-09-12T23:18:26.110Z,11.40
2022-09-12T23:23:20.798Z,11.40
2022-09-12T23:25:47.471Z,11.30
2022-09-12T23:28:14.682Z,10.90
2022-09-12T23:33:08.243Z,10.90
2022-09-12T23:35:34.789Z,10.60
2022-09-12T23:38:01.407Z,11.00
2022-09-12T23:40:27.941Z,12.80
2022-09-12T23:42:54.706Z,10.80
2022-09-12T23:45:21.284Z,13.00
2022-09-12T23:47:47.901Z,10.60
2022-09-12T23:50:14.531Z,13.10
2022-09-12T23:52:41.175Z,11.30
2022-09-12T23:55:07.994Z,10.60
2022-09-12T23:57:34.675Z,11.10
